Flight Track Log - Related Links

Times and Time Zones

All times are in EDT time to prevent confusion due to time zone crossing. See the N441R flight status page for this flight to view local times or setup timezone preferences in your user account.

Time Position Orientation Groundspeed Altitude Reporting Facility
EDT Latitude Longitude Course Direction KTS MPH feet Rate Location/Type
Thu 04:16:36 PM 37.1439 -81.1169 180° South 200 230 9,800  Level Indianapolis Center
Thu 04:17:38 PM 37.0878 -81.1172 180° South 205 236 11,200 1,403 Climbing Indianapolis Center
Thu 04:18:40 PM 37.0317 -81.1203 182° South 207 238 12,700 1,548 Climbing Indianapolis Center
Thu 04:19:42 PM 36.9644 -81.1200 180° South 205 236 14,400 1,488 Climbing Indianapolis Center
Thu 04:20:45 PM 36.9069 -81.1219 182° South 210 242 15,800 1,152 Climbing Indianapolis Center
Thu 04:21:47 PM 36.8461 -81.1244 182° South 222 255 16,800 919 Climbing Indianapolis Center
Thu 04:22:49 PM 36.7689 -81.1247 180° South 237 273 17,700 814 Climbing Indianapolis Center
Thu 04:24:07 PM 36.6764 -81.1242 180° South 244 281 18,700 913 Climbing Atlanta Center
Thu 04:25:07 PM 36.6056 -81.1269 182° South 256 295 19,800 1,050 Climbing Atlanta Center
Thu 04:26:07 PM 36.5367 -81.1267 180° South 256 295 20,800 950 Climbing Atlanta Center
Thu 04:27:07 PM 36.4658 -81.1294 182° South 251 289 21,700 900 Climbing Atlanta Center
Thu 04:28:07 PM 36.4056 -81.1289 180° South 251 289 22,600 950 Climbing Atlanta Center
Thu 04:29:07 PM 36.3367 -81.1314 182° South 246 283 23,600 1,000 Climbing Atlanta Center
Thu 04:30:07 PM 36.2700 -81.1314 180° South 246 283 24,600 1,000 Climbing Atlanta Center
Thu 04:31:07 PM 36.2033 -81.1336 182° South 246 283 25,600 1,000 Climbing Atlanta Center
Thu 04:32:07 PM 36.1367 -81.1361 182° South 246 283 26,600 950 Climbing Atlanta Center
Thu 04:33:07 PM 36.0719 -81.1358 180° South 236 272 27,500 600 Climbing Atlanta Center
Thu 04:34:07 PM 35.9969 -81.1386 182° South 236 272 27,800 250 Climbing Atlanta Center
Thu 04:35:07 PM 35.9258 -81.1386 180° South 247 284 28,000 100 Climbing Atlanta Center
Thu 04:36:07 PM 35.8508 -81.1386 180° South 257 296 28,000  Level Atlanta Center
Thu 04:37:07 PM 35.7739 -81.1414 182° South 270 311 28,000  Level Atlanta Center
Thu 04:38:07 PM 35.6964 -81.1389 178° South 275 316 28,000  Level Atlanta Center
Thu 04:39:07 PM 35.6131 -81.1419 182° South 280 322 28,000  Level Atlanta Center
Thu 04:40:07 PM 35.5400 -81.1394 178° South 290 334 28,000  Level Atlanta Center
Thu 04:41:07 PM 35.4650 -81.1472 185° South 284 327 28,000  Level Atlanta Center
Thu 04:42:07 PM 35.3881 -81.1500 182° South 279 321 28,000  Level Atlanta Center
Thu 04:43:07 PM 35.3025 -81.1528 182° South 279 321 28,000  Level Atlanta Center
Thu 04:44:07 PM 35.2253 -81.1531 180° South 279 321 28,000  Level Atlanta Center
Thu 04:45:38 PM 35.1094 -81.1569 182° South 278 320 28,000  Level Jacksonville Center
Thu 04:46:38 PM 35.0303 -81.1561 180° South 283 326 28,000  Level Jacksonville Center
Thu 04:47:38 PM 34.9531 -81.1578 181° South 283 326 28,000  Level Jacksonville Center
Thu 04:48:38 PM 34.8758 -81.1592 181° South 288 331 28,000  Level Jacksonville Center
Thu 04:49:38 PM 34.8008 -81.1583 179° South 283 326 28,000  Level Jacksonville Center
Thu 04:50:38 PM 34.7217 -81.1622 182° South 278 320 28,000  Level Jacksonville Center
Thu 04:51:38 PM 34.6486 -81.1614 179° South 273 314 28,000  Level Jacksonville Center
Thu 04:52:38 PM 34.5736 -81.1628 181° South 273 314 28,000  Level Jacksonville Center
Thu 04:53:38 PM 34.5047 -81.1642 181° South 273 314 28,000  Level Jacksonville Center
Thu 04:54:38 PM 34.4297 -81.1681 182° South 273 314 28,000  Level Jacksonville Center
Thu 04:55:38 PM 34.3506 -81.1697 181° South 273 314 28,000  Level Jacksonville Center
Thu 04:56:38 PM 34.2753 -81.1686 179° South 273 314 28,000  Level Jacksonville Center
Thu 04:57:38 PM 34.1981 -81.1703 181° South 273 314 28,000  Level Jacksonville Center
Thu 04:58:38 PM 34.1189 -81.1694 180° South 273 314 28,000  Level Jacksonville Center
Thu 04:59:38 PM 34.0458 -81.1708 181° South 273 314 28,000  Level Jacksonville Center
Thu 05:00:38 PM 33.9686 -81.1722 181° South 273 314 28,000  Level Jacksonville Center
Thu 05:01:38 PM 33.8914 -81.1739 181° South 273 314 28,000  Level Jacksonville Center
Thu 05:02:38 PM 33.8206 -81.1728 179° South 273 314 28,000  Level Jacksonville Center
Thu 05:03:38 PM 33.7581 -81.1764 183° South 273 314 28,000  Level Jacksonville Center
Thu 05:04:38 PM 33.6767 -81.1806 182° South 273 314 28,000  Level Jacksonville Center
Thu 05:05:38 PM 33.6014 -81.1819 181° South 273 314 28,000 -50 Level Jacksonville Center
Thu 05:06:38 PM 33.5286 -81.1808 179° South 268 308 27,900  Descending Jacksonville Center
Thu 05:07:38 PM 33.4533 -81.1822 181° South 268 308 28,000 50 Climbing Jacksonville Center
Thu 05:08:38 PM 33.3803 -81.1861 183° South 268 308 28,000 -50 Level Jacksonville Center
Thu 05:09:38 PM 33.3053 -81.1853 179° South 268 308 27,900  Descending Jacksonville Center
Thu 05:10:38 PM 33.2322 -81.1864 181° South 268 308 28,000 50 Climbing Jacksonville Center
Thu 05:11:38 PM 33.1592 -81.1881 181° South 268 308 28,000  Level Jacksonville Center
Thu 05:12:38 PM 33.0861 -81.1869 179° South 268 308 28,000  Level Jacksonville Center
Thu 05:13:38 PM 33.0111 -81.1908 182° South 268 308 28,000  Level Jacksonville Center
Thu 05:14:38 PM 32.9381 -81.1897 179° South 273 314 28,000  Level Jacksonville Center
Thu 05:15:38 PM 32.8628 -81.1911 181° South 273 314 28,000  Level Jacksonville Center
Thu 05:16:38 PM 32.7878 -81.1900 179° South 273 314 28,000  Level Jacksonville Center
Thu 05:17:38 PM 32.7125 -81.1864 178° South 273 314 28,000  Level Jacksonville Center
Thu 05:18:38 PM 32.6311 -81.1881 181° South 268 308 28,000  Level Jacksonville Center
Thu 05:19:38 PM 32.5536 -81.1822 176° South 275 316 28,000  Level Jacksonville Center
Thu 05:20:38 PM 32.4847 -81.1833 181° South 275 316 28,000  Level Jacksonville Center
Thu 05:21:38 PM 32.3992 -81.1800 178° South 284 327 28,000  Level Jacksonville Center
Thu 05:22:38 PM 32.3219 -81.1767 178° South 284 327 28,000 -50 Level Jacksonville Center
Thu 05:23:38 PM 32.2447 -81.1756 179° South 277 319 27,900 -50 Descending Jacksonville Center
Thu 05:24:38 PM 32.1675 -81.1722 178° South 277 319 27,900 50 Level Jacksonville Center
Thu 05:25:38 PM 32.0900 -81.1711 179° South 272 313 28,000 50 Climbing Jacksonville Center
Thu 05:26:38 PM 32.0150 -81.1725 181° South 272 313 28,000 -50 Level Jacksonville Center
Thu 05:27:38 PM 31.9356 -81.1692 178° South 272 313 27,900  Descending Jacksonville Center
Thu 05:28:38 PM 31.8583 -81.1658 178° South 277 319 28,000 50 Climbing Jacksonville Center
Thu 05:29:38 PM 31.7811 -81.1647 179° South 277 319 28,000  Level Jacksonville Center
Thu 05:30:38 PM 31.7058 -81.1611 178° South 272 313 28,000 -200 Level Jacksonville Center
Thu 05:31:38 PM 31.6328 -81.1600 179° South 277 319 27,600 -500 Descending Jacksonville Center
Thu 05:32:38 PM 31.5431 -81.1569 178° South 289 333 27,000 -550 Descending Jacksonville Center
Thu 05:33:38 PM 31.4636 -81.1561 179° South 295 339 26,500 -500 Descending Jacksonville Center
Thu 05:34:38 PM 31.3864 -81.1550 179° South 295 339 26,000 -600 Descending Jacksonville Center
Thu 05:35:38 PM 31.2944 -81.1542 180° South 303 349 25,300 -650 Descending Jacksonville Center
Thu 05:36:38 PM 31.2089 -81.1558 181° South 303 349 24,700 -600 Descending Jacksonville Center
Thu 05:37:38 PM 31.1231 -81.1500 177° South 314 361 24,100 -400 Descending Jacksonville Center
Thu 05:38:38 PM 31.0397 -81.1492 180° South 309 356 23,900 -50 Descending Jacksonville Center
Thu 05:39:38 PM 30.9583 -81.1483 179° South 304 350 24,000 50 Climbing Jacksonville Center
Thu 05:40:38 PM 30.8789 -81.1472 179° South 298 343 24,000  Level Jacksonville Center
Thu 05:41:38 PM 30.7975 -81.1464 179° South 291 335 24,000  Level Jacksonville Center
Thu 05:42:38 PM 30.7181 -81.1431 178° South 286 329 24,000  Level Jacksonville Center
Thu 05:43:38 PM 30.6408 -81.1422 179° South 286 329 24,000  Level Jacksonville Center
Thu 05:44:38 PM 30.5614 -81.1386 178° South 286 329 24,000  Level Jacksonville Center
Thu 05:45:38 PM 30.4819 -81.1353 178° South 291 335 24,000  Level Jacksonville Center
Thu 05:46:38 PM 30.4006 -81.1344 179° South 291 335 24,000  Level Jacksonville Center
Thu 05:47:38 PM 30.3211 -81.1358 181° South 291 335 24,000  Level Jacksonville Center
Thu 05:48:38 PM 30.2439 -81.1325 178° South 286 329 24,000 -650 Level Jacksonville Center
Thu 05:49:38 PM 30.1625 -81.1317 179° South 292 336 22,700 -1,500 Descending Jacksonville Center
Thu 05:50:38 PM 30.0706 -81.1333 181° South 311 358 21,000 -1,700 Descending Jacksonville Center
Thu 05:51:38 PM 29.9808 -81.1300 178° South 325 374 19,300 -1,650 Descending Jacksonville Center
Thu 05:52:38 PM 29.8869 -81.1294 180° South 330 380 17,700 -1,524 Descending Jacksonville Center
Thu 05:52:41 PM 29.8847 -81.1294 180° South 325 374 17,700 -1,500 Level Jacksonville Center
Thu 05:53:18 PM 29.8283 -81.1258 177° South 324 373 16,700 -1,789 Descending Jacksonville Center
Thu 05:53:38 PM 29.7969 -81.1264 181° South 330 380 16,000 -1,700 Descending Jacksonville Center
Thu 05:54:18 PM 29.7386 -81.1250 179° South 325 374 15,000 -1,700 Descending Jacksonville Center
Thu 05:54:38 PM 29.7094 -81.1256 181° South 324 373 14,300 -1,935 Descending Jacksonville Center
Thu 05:55:20 PM 29.6531 -81.1242 179° South 310 357 13,000 -2,100 Descending Jacksonville Center
Thu 05:55:38 PM 29.6239 -81.1247 181° South 324 373 12,200 -2,100 Descending Jacksonville Center
Thu 05:56:20 PM 29.5631 -81.1208 177° South 300 345 10,900 -1,900 Descending Jacksonville Center
Thu 05:56:38 PM 29.5403 -81.1236 186° South 312 359 10,300 -1,967 Descending Jacksonville Center
Thu 05:57:21 PM 29.4817 -81.1225 179° South 289 333 8,900 -1,700 Descending Jacksonville Center
Thu 05:57:38 PM 29.4692 -81.1203 171° South 300 345 8,600 -1,967 Descending Jacksonville Center
Thu 05:58:22 PM 29.4044 -81.1214 181° South 274 315 6,900 -2,000 Descending Jacksonville Center
Thu 05:58:38 PM 29.3942 -81.1264 203° Southwest 285 328 6,600 -1,967 Descending Jacksonville Center
Thu 05:59:23 PM 29.3358 -81.1250 179° South 248 285 4,900 -1,900 Descending Jacksonville Center
Thu 05:59:38 PM 29.3231 -81.1228 171° South 268 308 4,700 -787 Descending Jacksonville Center
Thu 06:00:24 PM 29.2731 -81.1286 186° South 220 253 4,100 -600 Descending Jacksonville Center
Thu 06:00:38 PM 29.2647 -81.1286 180° South 246 283 4,100 -197 Level Jacksonville Center
Thu 06:01:25 PM 29.2406 -81.1864 244° Southwest 200 230 3,900 -300 Descending Jacksonville Center
Thu 06:01:38 PM 29.2364 -81.1864 180° South 193 222 3,800 -700 Descending Jacksonville Center
Thu 06:02:25 PM 29.1867 -81.2108 203° Southwest 207 238 3,200 -833 Descending Jacksonville Center
Thu 06:03:26 PM 29.1344 -81.2094 179° South 204 235 2,300 -738 Descending Jacksonville Center
Thu 06:04:27 PM 29.1400 -81.1569 83° East 177 204 1,700 -689 Descending Jacksonville Center
Thu 06:05:28 PM 29.1561 -81.1139 67° East 140 161 900 -787 Descending Jacksonville Center
Thu 06:07:00 PM 29.1667 -81.0500 69° East  Level FlightAware Approximate
Thu 06:14:00 PM 29.1799 -81.0581 69° East  Level Estimated
Thu 06:15:00 PM 29.1799 -81.0581 69° East  Level Estimated
Thu 06:16:00 PM 29.1799 -81.0581 69° East  Level Estimated

Login

Don't have an account? Register now (free) for customized features, flight alerts, and more!